createdAt,value
2018-11-05T00:01:07.553Z,14.50
2018-11-05T00:03:39.285Z,14.50
2018-11-05T00:06:09.660Z,14.50
2018-11-05T00:08:42.295Z,14.40
2018-11-05T00:11:15.152Z,14.40
2018-11-05T00:13:48.681Z,14.30
2018-11-05T00:16:19.194Z,14.30
2018-11-05T00:18:51.423Z,14.20
2018-11-05T00:21:23.379Z,14.20
2018-11-05T00:23:53.845Z,14.20
2018-11-05T00:26:25.552Z,14.20
2018-11-05T00:28:57.654Z,14.20
2018-11-05T00:31:28.475Z,14.20
2018-11-05T00:33:59.085Z,14.20
2018-11-05T00:36:29.489Z,14.10
2018-11-05T00:38:59.953Z,14.10
2018-11-05T00:41:30.342Z,14.00
2018-11-05T00:44:04.512Z,14.00
2018-11-05T00:46:37.540Z,13.90
2018-11-05T00:49:09.886Z,13.90
2018-11-05T00:51:41.633Z,13.90
2018-11-05T00:54:13.997Z,13.90
2018-11-05T00:56:49.794Z,13.80
2018-11-05T00:59:21.223Z,13.80
2018-11-05T01:01:53.880Z,13.90
2018-11-05T01:10:41.142Z,13.80
2018-11-05T01:13:12.618Z,13.80
2018-11-05T01:15:44.764Z,13.70
2018-11-05T01:18:15.561Z,13.60
2018-11-05T01:20:47.004Z,13.50
2018-11-05T01:23:17.953Z,13.40
2018-11-05T01:25:54.007Z,13.30
2018-11-05T01:28:27.319Z,13.30
2018-11-05T01:30:59.397Z,13.30
2018-11-05T01:33:30.512Z,13.20
2018-11-05T01:36:00.984Z,13.20
2018-11-05T01:38:31.853Z,13.10
2018-11-05T01:41:05.141Z,13.10
2018-11-05T01:43:41.472Z,13.10
2018-11-05T01:46:12.560Z,13.10
2018-11-05T01:48:48.515Z,13.10
2018-11-05T01:51:19.923Z,13.00
2018-11-05T01:53:51.200Z,13.00
2018-11-05T01:56:22.256Z,13.00
2018-11-05T01:58:55.198Z,13.00
2018-11-05T02:01:26.898Z,12.90
2018-11-05T02:03:58.587Z,12.80
2018-11-05T02:06:29.340Z,12.70
2018-11-05T02:09:02.901Z,12.70
2018-11-05T02:11:34.064Z,12.70
2018-11-05T02:14:07.550Z,12.60
2018-11-05T02:16:40.834Z,12.60
2018-11-05T02:19:14.410Z,12.60
2018-11-05T02:21:47.680Z,12.50
2018-11-05T02:24:19.358Z,12.40
2018-11-05T02:26:50.736Z,12.40
2018-11-05T02:29:21.459Z,12.30
2018-11-05T02:31:53.344Z,12.30
2018-11-05T02:34:23.972Z,12.20
2018-11-05T02:36:55.296Z,12.20
2018-11-05T02:39:26.035Z,12.10
2018-11-05T02:41:57.173Z,12.00
2018-11-05T02:44:28.037Z,11.90
2018-11-05T02:46:58.743Z,11.80
2018-11-05T02:49:29.522Z,11.80
2018-11-05T02:52:00.819Z,11.80
2018-11-05T02:54:31.469Z,11.70
2018-11-05T02:57:02.907Z,11.70
2018-11-05T02:59:33.858Z,11.70
2018-11-05T03:02:04.740Z,11.50
2018-11-05T03:04:35.500Z,11.50
2018-11-05T03:07:06.104Z,11.40
2018-11-05T03:09:37.156Z,11.40
2018-11-05T03:12:08.436Z,11.40
2018-11-05T03:14:39.203Z,11.30
2018-11-05T03:17:10.105Z,11.30
2018-11-05T03:19:40.973Z,11.30
2018-11-05T03:22:12.079Z,11.30
2018-11-05T03:24:43.139Z,11.30
2018-11-05T03:27:14.049Z,11.30
2018-11-05T03:29:45.004Z,11.20
2018-11-05T03:32:16.013Z,11.20
2018-11-05T03:34:48.338Z,11.20
2018-11-05T03:37:20.090Z,11.20
2018-11-05T03:39:52.374Z,11.20
2018-11-05T03:42:23.053Z,11.20
2018-11-05T03:44:54.238Z,11.10
2018-11-05T03:47:28.322Z,11.00
2018-11-05T03:49:59.393Z,11.00
2018-11-05T03:52:32.781Z,11.00
2018-11-05T03:55:03.628Z,11.00
2018-11-05T03:57:35.277Z,11.00
2018-11-05T04:00:09.516Z,11.00
2018-11-05T04:02:41.504Z,11.00
2018-11-05T04:05:12.383Z,11.00
2018-11-05T04:07:45.365Z,10.90
2018-11-05T04:10:18.009Z,10.80
2018-11-05T04:12:50.958Z,10.80
2018-11-05T04:15:23.041Z,10.70
2018-11-05T04:17:53.897Z,10.70
2018-11-05T04:20:24.578Z,10.70
2018-11-05T04:22:58.059Z,10.70
2018-11-05T04:25:30.996Z,10.70
2018-11-05T04:28:03.011Z,10.70
2018-11-05T04:30:34.117Z,10.60
2018-11-05T04:33:08.053Z,10.60
2018-11-05T04:35:39.570Z,10.50
2018-11-05T04:38:10.725Z,10.50
2018-11-05T04:40:42.237Z,10.50
2018-11-05T04:43:14.963Z,10.50
2018-11-05T04:45:46.401Z,10.50
2018-11-05T04:48:17.125Z,10.40
2018-11-05T04:50:49.818Z,10.40
2018-11-05T04:53:21.131Z,10.30
2018-11-05T04:55:51.928Z,10.40
2018-11-05T04:58:25.413Z,10.40
2018-11-05T05:00:56.702Z,10.40
2018-11-05T05:03:30.965Z,10.40
2018-11-05T05:06:01.570Z,10.40
2018-11-05T05:08:33.427Z,10.30
2018-11-05T05:11:06.674Z,10.30
2018-11-05T05:16:59.289Z,10.30
2018-11-05T05:19:31.117Z,10.20
2018-11-05T05:22:04.346Z,10.20
2018-11-05T05:24:36.214Z,10.20
2018-11-05T05:27:08.431Z,10.20
2018-11-05T05:29:40.408Z,10.20
2018-11-05T05:32:11.655Z,10.20
2018-11-05T05:34:42.375Z,10.20
2018-11-05T05:37:13.299Z,10.20
2018-11-05T05:39:44.046Z,10.20
2018-11-05T05:42:14.641Z,10.30
2018-11-05T05:44:47.015Z,10.40
2018-11-05T05:47:17.793Z,10.40
2018-11-05T05:49:48.791Z,10.40
2018-11-05T05:52:20.475Z,10.50
2018-11-05T05:54:52.829Z,10.40
2018-11-05T05:57:24.032Z,10.40
2018-11-05T05:59:55.261Z,10.30
2018-11-05T06:02:31.657Z,10.30
2018-11-05T06:05:03.634Z,10.30
2018-11-05T06:07:34.420Z,10.30
2018-11-05T06:10:05.802Z,10.40
2018-11-05T06:12:36.613Z,10.50
2018-11-05T06:15:10.914Z,10.50
2018-11-05T06:17:42.106Z,10.60
2018-11-05T06:20:15.468Z,10.60
2018-11-05T06:22:47.101Z,10.70
2018-11-05T06:25:18.129Z,10.70
2018-11-05T06:27:50.404Z,10.80
2018-11-05T06:30:21.921Z,10.90
2018-11-05T06:32:53.263Z,10.80
2018-11-05T06:35:24.345Z,10.80
2018-11-05T06:37:55.188Z,10.80
2018-11-05T06:40:26.239Z,10.90
2018-11-05T06:42:57.033Z,11.00
2018-11-05T06:45:27.854Z,11.10
2018-11-05T06:48:00.596Z,11.20
2018-11-05T06:50:31.357Z,11.40
2018-11-05T06:53:02.371Z,11.60
2018-11-05T06:55:33.762Z,11.90
2018-11-05T06:58:04.590Z,12.10
2018-11-05T07:00:35.191Z,12.50
2018-11-05T07:03:06.351Z,13.20
2018-11-05T07:05:37.732Z,13.60
2018-11-05T07:08:08.537Z,14.10
2018-11-05T07:10:39.930Z,14.50
2018-11-05T07:13:10.638Z,14.90
2018-11-05T07:15:41.947Z,15.20
2018-11-05T07:24:27.719Z,15.40
2018-11-05T07:26:58.324Z,15.60
2018-11-05T07:29:29.289Z,15.80
2018-11-05T07:32:00.126Z,16.00
2018-11-05T07:34:31.356Z,16.20
2018-11-05T07:37:02.200Z,16.40
2018-11-05T07:39:33.044Z,16.40
2018-11-05T07:42:04.070Z,16.50
2018-11-05T07:44:35.097Z,16.80
2018-11-05T07:47:05.871Z,17.00
2018-11-05T07:49:36.520Z,17.30
2018-11-05T07:52:07.866Z,17.40
2018-11-05T07:54:38.927Z,17.50
2018-11-05T07:57:09.514Z,17.60
2018-11-05T07:59:45.236Z,17.90
2018-11-05T08:02:15.947Z,18.40
2018-11-05T08:04:47.151Z,18.90
2018-11-05T08:07:18.265Z,19.50
2018-11-05T08:09:49.002Z,19.80
2018-11-05T08:12:21.232Z,20.20
2018-11-05T08:14:55.319Z,20.00
2018-11-05T08:24:25.636Z,20.10
2018-11-05T08:26:56.936Z,20.20
2018-11-05T08:29:27.396Z,20.50
2018-11-05T08:31:57.858Z,20.80
2018-11-05T08:34:28.264Z,20.70
2018-11-05T08:36:58.643Z,20.70
2018-11-05T08:39:29.430Z,20.80
2018-11-05T08:41:59.992Z,20.60
2018-11-05T08:44:30.436Z,20.80
2018-11-05T08:47:02.237Z,21.00
2018-11-05T08:49:32.948Z,20.90
2018-11-05T08:52:03.395Z,21.20
2018-11-05T08:54:33.852Z,21.50
2018-11-05T08:57:06.892Z,21.80
2018-11-05T08:59:37.354Z,21.80
2018-11-05T09:02:08.009Z,22.10
2018-11-05T09:04:39.096Z,22.00
2018-11-05T09:07:15.779Z,22.20
2018-11-05T09:09:47.449Z,22.20
2018-11-05T09:12:17.945Z,22.70
2018-11-05T09:14:48.792Z,23.00
2018-11-05T09:17:19.985Z,23.00
2018-11-05T09:19:50.680Z,23.20
2018-11-05T09:22:21.393Z,23.20
2018-11-05T09:24:53.875Z,23.10
2018-11-05T09:27:25.390Z,23.20
2018-11-05T09:29:55.830Z,23.10
2018-11-05T09:32:26.262Z,23.30
2018-11-05T09:34:56.756Z,23.40
2018-11-05T09:37:27.158Z,23.50
2018-11-05T09:39:57.942Z,23.60
2018-11-05T09:42:28.378Z,23.60
2018-11-05T09:44:58.884Z,23.50
2018-11-05T09:47:29.590Z,23.70
2018-11-05T09:50:00.009Z,24.00
2018-11-05T09:52:30.409Z,24.00
2018-11-05T09:55:00.810Z,23.80
2018-11-05T09:57:31.254Z,24.00
2018-11-05T10:00:01.740Z,24.10
2018-11-05T10:02:37.368Z,24.20
2018-11-05T10:05:08.105Z,24.30
2018-11-05T10:07:38.301Z,24.40
2018-11-05T10:10:10.688Z,24.40
2018-11-05T10:12:41.525Z,24.30
2018-11-05T10:15:14.133Z,24.20
2018-11-05T10:17:45.368Z,24.10
2018-11-05T10:20:19.676Z,24.10
2018-11-05T10:22:50.655Z,24.20
2018-11-05T10:25:21.544Z,24.40
2018-11-05T10:27:52.663Z,24.50
2018-11-05T10:30:24.527Z,24.60
2018-11-05T10:32:55.079Z,24.50
2018-11-05T10:35:30.569Z,24.20
2018-11-05T10:38:01.299Z,23.80
2018-11-05T10:40:32.050Z,23.50
2018-11-05T10:43:02.509Z,23.30
2018-11-05T10:45:32.955Z,23.60
2018-11-05T10:48:04.056Z,23.70
2018-11-05T10:50:34.560Z,23.90
2018-11-05T10:53:06.605Z,24.20
2018-11-05T10:55:37.236Z,24.60
2018-11-05T10:58:07.818Z,24.90
2018-11-05T11:00:44.544Z,25.00
2018-11-05T11:03:19.063Z,25.20
2018-11-05T11:05:49.510Z,25.50
2018-11-05T11:08:20.188Z,25.60
2018-11-05T11:10:52.072Z,25.70
2018-11-05T11:13:22.494Z,25.70
2018-11-05T11:15:52.876Z,25.60
2018-11-05T11:18:23.684Z,25.80
2018-11-05T11:20:55.252Z,25.70
2018-11-05T11:23:25.657Z,25.70
2018-11-05T11:25:57.125Z,25.70
2018-11-05T11:28:29.182Z,25.90
2018-11-05T11:30:59.797Z,25.90
2018-11-05T11:33:30.615Z,26.00
2018-11-05T11:36:03.555Z,26.00
2018-11-05T11:38:33.988Z,25.90
2018-11-05T11:41:04.929Z,26.00
2018-11-05T11:43:35.337Z,25.60
2018-11-05T11:46:06.546Z,25.50
2018-11-05T11:48:37.118Z,25.90
2018-11-05T11:51:07.930Z,26.10
2018-11-05T11:53:38.364Z,26.20
2018-11-05T11:56:08.876Z,26.40
2018-11-05T11:58:39.454Z,26.10
2018-11-05T12:01:09.745Z,25.70
2018-11-05T12:03:40.676Z,25.80
2018-11-05T12:06:11.299Z,25.30
2018-11-05T12:08:41.729Z,25.20
2018-11-05T12:11:16.573Z,25.30
2018-11-05T12:13:47.748Z,25.50
2018-11-05T12:16:18.540Z,25.70
2018-11-05T12:18:49.474Z,25.70
2018-11-05T12:21:20.009Z,25.70
2018-11-05T12:23:50.713Z,25.70
2018-11-05T12:26:33.092Z,25.70
2018-11-05T12:29:03.664Z,26.10
2018-11-05T12:31:34.270Z,26.00
2018-11-05T12:34:05.254Z,26.00
2018-11-05T12:36:35.931Z,25.70
2018-11-05T12:39:11.039Z,26.00
2018-11-05T12:41:42.502Z,26.10
2018-11-05T12:44:13.168Z,25.80
2018-11-05T12:46:43.807Z,25.80
2018-11-05T12:49:14.795Z,25.30
2018-11-05T12:51:47.288Z,24.70
2018-11-05T12:54:19.572Z,24.10
2018-11-05T12:56:50.353Z,23.70
2018-11-05T12:59:20.939Z,23.30
2018-11-05T13:01:56.123Z,23.10
2018-11-05T13:04:29.221Z,23.00
2018-11-05T13:07:02.128Z,22.70
2018-11-05T13:09:33.319Z,22.60
2018-11-05T13:12:06.397Z,22.40
2018-11-05T13:14:39.796Z,22.50
2018-11-05T13:17:18.328Z,22.30
2018-11-05T13:19:50.438Z,22.20
2018-11-05T13:22:25.122Z,22.30
2018-11-05T13:25:03.803Z,22.30
2018-11-05T13:27:35.725Z,22.40
2018-11-05T13:30:10.248Z,22.40
2018-11-05T13:32:41.797Z,22.20
2018-11-05T13:35:13.920Z,22.00
2018-11-05T13:37:47.791Z,22.00
2018-11-05T13:40:20.834Z,22.00
2018-11-05T13:42:53.319Z,22.10
2018-11-05T13:45:26.659Z,21.90
2018-11-05T13:47:58.821Z,21.80
2018-11-05T13:50:32.028Z,22.10
2018-11-05T13:53:04.018Z,22.20
2018-11-05T13:55:36.354Z,22.30
2018-11-05T13:58:08.797Z,22.60
2018-11-05T14:00:40.910Z,22.40
2018-11-05T14:03:12.818Z,22.30
2018-11-05T14:05:44.262Z,22.30
2018-11-05T14:08:15.234Z,22.30
2018-11-05T14:10:46.518Z,22.10
2018-11-05T14:13:17.000Z,22.10
2018-11-05T14:15:47.764Z,21.90
2018-11-05T14:18:18.424Z,21.90
2018-11-05T14:20:49.911Z,21.80
2018-11-05T14:23:21.465Z,21.70
2018-11-05T14:25:52.037Z,21.90
2018-11-05T14:28:26.102Z,21.80
2018-11-05T14:30:56.440Z,21.60
2018-11-05T14:33:26.877Z,21.50
2018-11-05T14:35:58.106Z,21.30
2018-11-05T14:38:29.637Z,21.30
2018-11-05T14:41:00.411Z,21.20
2018-11-05T14:43:31.298Z,21.10
2018-11-05T14:46:01.983Z,21.20
2018-11-05T14:48:33.224Z,21.10
2018-11-05T14:51:03.754Z,20.90
2018-11-05T14:53:35.248Z,20.80
2018-11-05T14:56:06.551Z,20.70
2018-11-05T14:58:37.528Z,20.60
2018-11-05T15:01:08.554Z,20.50
2018-11-05T15:03:39.357Z,20.30
2018-11-05T15:06:09.951Z,20.20
2018-11-05T15:08:40.990Z,20.30
2018-11-05T15:11:11.585Z,20.20
2018-11-05T15:13:42.586Z,20.20
2018-11-05T15:16:13.552Z,20.10
2018-11-05T15:18:44.386Z,20.30
2018-11-05T15:21:15.092Z,20.10
2018-11-05T15:23:45.886Z,19.80
2018-11-05T15:26:16.473Z,19.60
2018-11-05T15:28:47.115Z,19.80
2018-11-05T15:31:17.922Z,19.80
2018-11-05T15:33:49.078Z,19.70
2018-11-05T15:36:19.793Z,19.50
2018-11-05T15:38:51.880Z,19.50
2018-11-05T15:41:23.677Z,19.40
2018-11-05T15:43:57.333Z,19.50
2018-11-05T15:46:28.322Z,19.40
2018-11-05T15:48:59.665Z,19.30
2018-11-05T15:51:30.722Z,19.10
2018-11-05T15:54:01.707Z,19.10
2018-11-05T15:56:32.147Z,19.10
2018-11-05T15:59:03.044Z,19.10
2018-11-05T16:01:33.714Z,19.10
2018-11-05T16:04:05.326Z,19.10
2018-11-05T16:06:36.196Z,19.10
2018-11-05T16:09:09.382Z,18.90
2018-11-05T16:11:39.926Z,18.70
2018-11-05T16:14:10.558Z,18.50
2018-11-05T16:16:41.694Z,18.50
2018-11-05T16:19:12.135Z,18.50
2018-11-05T16:21:44.283Z,18.50
2018-11-05T16:24:15.578Z,18.60
2018-11-05T16:26:46.489Z,18.60
2018-11-05T16:29:17.414Z,18.60
2018-11-05T16:34:57.492Z,18.20
2018-11-05T16:37:28.349Z,18.00
2018-11-05T16:39:59.813Z,18.00
2018-11-05T16:42:32.487Z,17.90
2018-11-05T16:45:02.965Z,17.80
2018-11-05T16:47:35.119Z,17.70
2018-11-05T16:50:16.865Z,17.70
2018-11-05T16:52:48.174Z,17.60
2018-11-05T16:55:19.972Z,17.50
2018-11-05T16:57:51.241Z,17.30
2018-11-05T17:00:22.585Z,17.20
2018-11-05T17:02:54.241Z,17.10
2018-11-05T17:05:24.994Z,17.10
2018-11-05T17:07:56.167Z,17.10
2018-11-05T17:10:27.088Z,17.10
2018-11-05T17:12:59.883Z,17.10
2018-11-05T17:15:30.733Z,17.10
2018-11-05T17:18:01.814Z,17.10
2018-11-05T17:20:33.428Z,17.00
2018-11-05T17:23:04.116Z,17.00
2018-11-05T17:25:35.687Z,16.90
2018-11-05T17:28:06.244Z,16.90
2018-11-05T17:30:37.214Z,16.80
2018-11-05T17:33:08.653Z,16.70
2018-11-05T17:35:39.591Z,16.70
2018-11-05T17:38:10.650Z,16.70
2018-11-05T17:40:42.088Z,16.80
2018-11-05T17:43:13.191Z,16.80
2018-11-05T17:45:44.564Z,16.60
2018-11-05T17:48:15.549Z,16.60
2018-11-05T17:50:47.589Z,16.50
2018-11-05T17:53:19.054Z,16.50
2018-11-05T17:55:50.089Z,16.50
2018-11-05T17:58:21.285Z,16.50
2018-11-05T18:00:55.673Z,16.50
2018-11-05T18:03:27.278Z,16.50
2018-11-05T18:05:58.808Z,16.50
2018-11-05T20:10:31.431Z,14.60
2018-11-05T20:13:02.437Z,14.60
2018-11-05T20:15:33.175Z,14.50
2018-11-05T20:18:04.042Z,14.50
2018-11-05T20:20:35.708Z,14.50
2018-11-05T20:23:06.728Z,14.40
2018-11-05T20:25:37.578Z,14.40
2018-11-05T20:28:08.587Z,14.30
2018-11-05T20:30:39.347Z,14.30
2018-11-05T20:33:11.903Z,14.20
2018-11-05T20:35:42.798Z,14.10
2018-11-05T20:38:15.891Z,14.00
2018-11-05T20:40:46.505Z,14.00
2018-11-05T20:43:18.819Z,13.90
2018-11-05T20:46:14.984Z,13.80
2018-11-05T20:48:49.988Z,13.70
2018-11-05T20:51:22.359Z,13.60
2018-11-05T20:53:53.264Z,13.70
2018-11-05T20:56:27.274Z,13.60
2018-11-05T20:58:59.469Z,13.50
2018-11-05T21:01:32.099Z,13.50
2018-11-05T21:04:04.125Z,13.60
2018-11-05T21:06:37.325Z,13.70
2018-11-05T21:09:10.505Z,13.70
2018-11-05T21:11:42.197Z,13.60
2018-11-05T21:14:13.228Z,13.60
2018-11-05T21:16:44.491Z,13.50
2018-11-05T21:19:15.206Z,13.40
2018-11-05T21:21:46.253Z,13.30
2018-11-05T21:24:16.985Z,13.30
2018-11-05T21:26:47.475Z,13.20
2018-11-05T21:29:18.169Z,13.20
2018-11-05T21:32:05.908Z,13.10
2018-11-05T21:34:37.509Z,13.10
2018-11-05T21:37:08.261Z,13.10
2018-11-05T21:39:40.497Z,13.00
2018-11-05T21:42:12.577Z,12.90
2018-11-05T21:44:43.141Z,12.80
2018-11-05T21:47:18.835Z,12.80
2018-11-05T21:49:49.394Z,12.70
2018-11-05T21:52:20.275Z,12.70
2018-11-05T21:54:51.323Z,12.70
2018-11-05T21:57:22.578Z,12.60
2018-11-05T21:59:53.384Z,12.60
2018-11-05T22:02:24.124Z,12.60
2018-11-05T22:04:55.607Z,12.60
2018-11-05T22:07:26.494Z,12.50
2018-11-05T22:09:57.582Z,12.50
2018-11-05T22:12:28.624Z,12.40
2018-11-05T22:14:59.099Z,12.40
2018-11-05T22:17:29.669Z,12.50
2018-11-05T22:20:01.771Z,12.50
2018-11-05T22:22:32.387Z,12.40
2018-11-05T22:25:06.459Z,12.40
2018-11-05T22:27:37.401Z,12.40
2018-11-05T22:30:10.377Z,12.30
2018-11-05T22:32:41.257Z,12.30
2018-11-05T22:35:12.138Z,12.20
2018-11-05T22:37:43.471Z,12.30
2018-11-05T22:40:15.213Z,12.30
2018-11-05T22:42:46.789Z,12.30
2018-11-05T22:45:17.148Z,12.20
2018-11-05T22:50:56.535Z,12.20
2018-11-05T22:53:28.180Z,12.20
2018-11-05T22:55:59.081Z,12.20
2018-11-05T22:58:29.677Z,12.20
2018-11-05T23:01:06.163Z,12.20
2018-11-05T23:03:36.896Z,12.20
2018-11-05T23:06:07.722Z,12.20
2018-11-05T23:08:38.217Z,12.10
2018-11-05T23:11:10.482Z,12.10
2018-11-05T23:13:41.925Z,12.10
2018-11-05T23:16:13.256Z,12.10
2018-11-05T23:18:43.837Z,12.00
2018-11-05T23:21:15.392Z,12.00
2018-11-05T23:23:46.005Z,11.90
2018-11-05T23:26:18.093Z,11.90
2018-11-05T23:28:49.040Z,11.80
2018-11-05T23:31:20.133Z,11.80
2018-11-05T23:33:50.678Z,11.80
2018-11-05T23:36:21.482Z,11.70
2018-11-05T23:38:52.191Z,11.70
2018-11-05T23:41:22.901Z,11.70
2018-11-05T23:43:53.587Z,11.60
2018-11-05T23:46:24.549Z,11.50
2018-11-05T23:48:55.197Z,11.40
2018-11-05T23:51:26.487Z,11.40
2018-11-05T23:53:57.431Z,11.40
2018-11-05T23:56:28.028Z,11.50
2018-11-05T23:58:59.058Z,11.50
